sensor_id;sensor_type;location;lat;lon;timestamp;pressure;altitude;pressure_sealevel;temperature;humidity
64753;BME280;61095;52.454;16.948;2022-09-01T04:02:30;101203.53;;;12.73;68.08
64753;BME280;61095;52.454;16.948;2022-09-01T04:07:28;101202.53;;;12.77;67.38
64753;BME280;61095;52.454;16.948;2022-09-01T04:12:27;101203.06;;;12.90;67.74
64753;BME280;61095;52.454;16.948;2022-09-01T04:17:26;101200.97;;;13.01;67.35
64753;BME280;61095;52.454;16.948;2022-09-01T04:22:43;101195.19;;;13.18;67.41
64753;BME280;61095;52.454;16.948;2022-09-01T04:27:43;101201.69;;;13.36;67.05
64753;BME280;61095;52.454;16.948;2022-09-01T04:32:43;101199.44;;;13.52;66.48
64753;BME280;61095;52.454;16.948;2022-09-01T04:37:44;101192.44;;;13.77;66.34
64753;BME280;61095;52.454;16.948;2022-09-01T04:42:43;101209.06;;;14.10;65.59
64753;BME280;61095;52.454;16.948;2022-09-01T04:47:42;101201.00;;;14.38;64.83
64753;BME280;61095;52.454;16.948;2022-09-01T04:52:41;101198.94;;;14.71;64.18
64753;BME280;61095;52.454;16.948;2022-09-01T04:57:42;101207.56;;;15.03;63.25
64753;BME280;61095;52.454;16.948;2022-09-01T05:02:43;101200.91;;;15.38;62.70
64753;BME280;61095;52.454;16.948;2022-09-01T05:07:42;101208.63;;;15.66;62.15
64753;BME280;61095;52.454;16.948;2022-09-01T05:12:41;101204.31;;;16.07;61.39
64753;BME280;61095;52.454;16.948;2022-09-01T05:17:42;101199.00;;;16.47;60.15
64753;BME280;61095;52.454;16.948;2022-09-01T05:22:41;101196.44;;;16.85;59.40
64753;BME280;61095;52.454;16.948;2022-09-01T05:27:42;101200.16;;;17.20;58.65
64753;BME280;61095;52.454;16.948;2022-09-01T05:32:45;101197.00;;;17.49;57.55
64753;BME280;61095;52.454;16.948;2022-09-01T05:37:45;101203.53;;;17.80;56.98
64753;BME280;61095;52.454;16.948;2022-09-01T05:42:49;101194.38;;;18.03;55.98
64753;BME280;61095;52.454;16.948;2022-09-01T05:47:50;101196.53;;;18.31;55.53
64753;BME280;61095;52.454;16.948;2022-09-01T05:52:51;101198.03;;;18.71;54.76
64753;BME280;61095;52.454;16.948;2022-09-01T05:57:50;101191.75;;;18.88;53.66
64753;BME280;61095;52.454;16.948;2022-09-01T06:02:50;101193.72;;;19.17;53.21
64753;BME280;61095;52.454;16.948;2022-09-01T06:07:49;101202.78;;;19.46;52.63
64753;BME280;61095;52.454;16.948;2022-09-01T06:12:48;101199.09;;;19.80;52.12
64753;BME280;61095;52.454;16.948;2022-09-01T06:17:49;101207.50;;;20.04;50.79
64753;BME280;61095;52.454;16.948;2022-09-01T06:22:48;101201.63;;;20.13;51.04
64753;BME280;61095;52.454;16.948;2022-09-01T06:27:48;101204.31;;;20.43;50.17
64753;BME280;61095;52.454;16.948;2022-09-01T06:32:50;101217.19;;;20.67;49.30
64753;BME280;61095;52.454;16.948;2022-09-01T06:37:49;101208.75;;;20.73;49.39
64753;BME280;61095;52.454;16.948;2022-09-01T06:42:49;101222.66;;;20.93;49.23
64753;BME280;61095;52.454;16.948;2022-09-01T06:47:50;101221.59;;;20.96;48.22
64753;BME280;61095;52.454;16.948;2022-09-01T06:52:49;101218.47;;;21.18;48.31
64753;BME280;61095;52.454;16.948;2022-09-01T06:57:57;101225.66;;;21.32;47.53
64753;BME280;61095;52.454;16.948;2022-09-01T07:02:57;101226.78;;;21.42;47.07
64753;BME280;61095;52.454;16.948;2022-09-01T07:07:55;101225.44;;;21.49;46.95
64753;BME280;61095;52.454;16.948;2022-09-01T07:12:55;101224.28;;;21.53;46.86
64753;BME280;61095;52.454;16.948;2022-09-01T07:17:59;101218.88;;;21.94;46.02
64753;BME280;61095;52.454;16.948;2022-09-01T07:22:57;101221.88;;;22.16;45.20
64753;BME280;61095;52.454;16.948;2022-09-01T07:27:56;101228.66;;;22.22;44.72
64753;BME280;61095;52.454;16.948;2022-09-01T07:32:56;101220.06;;;22.17;44.62
64753;BME280;61095;52.454;16.948;2022-09-01T07:37:56;101217.94;;;22.35;43.50
64753;BME280;61095;52.454;16.948;2022-09-01T07:42:55;101225.50;;;22.42;43.62
64753;BME280;61095;52.454;16.948;2022-09-01T07:47:55;101217.91;;;22.22;43.69
64753;BME280;61095;52.454;16.948;2022-09-01T07:52:57;101222.84;;;21.89;43.33
64753;BME280;61095;52.454;16.948;2022-09-01T07:57:57;101220.84;;;21.78;43.53
64753;BME280;61095;52.454;16.948;2022-09-01T08:02:55;101241.56;;;21.35;44.10
64753;BME280;61095;52.454;16.948;2022-09-01T08:07:54;101236.69;;;21.27;44.13
64753;BME280;61095;52.454;16.948;2022-09-01T08:12:54;101245.81;;;20.66;44.53
64753;BME280;61095;52.454;16.948;2022-09-01T08:17:53;101258.75;;;20.59;44.65
64753;BME280;61095;52.454;16.948;2022-09-01T08:22:51;101248.41;;;20.08;45.57
64753;BME280;61095;52.454;16.948;2022-09-01T08:27:50;101237.91;;;20.03;45.79
64753;BME280;61095;52.454;16.948;2022-09-01T08:32:50;101230.66;;;20.05;45.74
64753;BME280;61095;52.454;16.948;2022-09-01T08:37:48;101232.19;;;19.79;45.72
64753;BME280;61095;52.454;16.948;2022-09-01T08:42:54;101233.53;;;19.86;45.03
64753;BME280;61095;52.454;16.948;2022-09-01T08:48:04;101223.75;;;20.17;44.07
64753;BME280;61095;52.454;16.948;2022-09-01T08:53:08;101224.31;;;20.38;43.22
64753;BME280;61095;52.454;16.948;2022-09-01T08:58:13;101227.19;;;20.49;40.69
64753;BME280;61095;52.454;16.948;2022-09-01T09:03:19;101227.09;;;20.50;40.60
64753;BME280;61095;52.454;16.948;2022-09-01T09:08:38;101213.66;;;20.66;40.41
64753;BME280;61095;52.454;16.948;2022-09-01T09:13:50;101213.38;;;20.71;39.58
64753;BME280;61095;52.454;16.948;2022-09-01T09:18:57;101217.09;;;20.68;40.06
64753;BME280;61095;52.454;16.948;2022-09-01T09:24:01;101219.88;;;20.67;40.14
64753;BME280;61095;52.454;16.948;2022-09-01T09:29:03;101207.56;;;20.48;40.54
64753;BME280;61095;52.454;16.948;2022-09-01T09:34:15;101212.59;;;20.69;39.90
64753;BME280;61095;52.454;16.948;2022-09-01T09:39:16;101222.28;;;20.71;38.90
64753;BME280;61095;52.454;16.948;2022-09-01T09:44:20;101203.19;;;20.62;38.63
64753;BME280;61095;52.454;16.948;2022-09-01T09:49:22;101201.09;;;20.67;38.89
64753;BME280;61095;52.454;16.948;2022-09-01T09:54:23;101195.25;;;20.60;38.78
64753;BME280;61095;52.454;16.948;2022-09-01T09:59:27;101190.56;;;20.64;38.55
64753;BME280;61095;52.454;16.948;2022-09-01T10:04:34;101191.63;;;20.75;38.18
64753;BME280;61095;52.454;16.948;2022-09-01T10:09:36;101181.47;;;20.66;38.60
64753;BME280;61095;52.454;16.948;2022-09-01T10:14:40;101190.56;;;20.78;38.89
64753;BME280;61095;52.454;16.948;2022-09-01T10:19:42;101190.09;;;20.71;39.51
64753;BME280;61095;52.454;16.948;2022-09-01T10:24:44;101190.66;;;20.62;39.06
64753;BME280;61095;52.454;16.948;2022-09-01T10:29:46;101193.19;;;20.49;37.92
64753;BME280;61095;52.454;16.948;2022-09-01T10:34:48;101187.59;;;20.54;37.96
64753;BME280;61095;52.454;16.948;2022-09-01T10:40:12;101186.06;;;20.64;37.91
64753;BME280;61095;52.454;16.948;2022-09-01T10:45:28;101180.31;;;20.70;38.35
64753;BME280;61095;52.454;16.948;2022-09-01T10:50:30;101178.41;;;20.72;39.18
64753;BME280;61095;52.454;16.948;2022-09-01T10:55:39;101191.41;;;20.64;38.92
64753;BME280;61095;52.454;16.948;2022-09-01T11:00:49;101195.94;;;20.64;38.76
64753;BME280;61095;52.454;16.948;2022-09-01T11:05:59;101198.06;;;20.43;38.38
64753;BME280;61095;52.454;16.948;2022-09-01T11:11:01;101197.69;;;20.35;38.63
64753;BME280;61095;52.454;16.948;2022-09-01T11:16:25;101192.03;;;20.39;38.46
64753;BME280;61095;52.454;16.948;2022-09-01T11:21:28;101190.13;;;20.41;39.13
64753;BME280;61095;52.454;16.948;2022-09-01T11:26:46;101196.97;;;20.31;38.00
64753;BME280;61095;52.454;16.948;2022-09-01T11:31:45;101199.56;;;20.33;39.19
64753;BME280;61095;52.454;16.948;2022-09-01T11:36:54;101197.63;;;20.20;39.55
64753;BME280;61095;52.454;16.948;2022-09-01T11:41:58;101193.59;;;20.13;40.08
64753;BME280;61095;52.454;16.948;2022-09-01T11:47:02;101191.19;;;20.09;40.96
64753;BME280;61095;52.454;16.948;2022-09-01T11:52:04;101199.63;;;20.01;40.60
64753;BME280;61095;52.454;16.948;2022-09-01T11:57:16;101206.63;;;20.04;40.27
64753;BME280;61095;52.454;16.948;2022-09-01T12:02:20;101199.63;;;20.01;40.02
64753;BME280;61095;52.454;16.948;2022-09-01T12:07:29;101195.91;;;20.04;39.45
64753;BME280;61095;52.454;16.948;2022-09-01T12:12:33;101197.03;;;20.15;39.34
64753;BME280;61095;52.454;16.948;2022-09-01T12:17:32;101186.22;;;20.17;38.63
64753;BME280;61095;52.454;16.948;2022-09-01T12:22:33;101195.03;;;20.19;38.67
64753;BME280;61095;52.454;16.948;2022-09-01T12:27:32;101185.00;;;20.22;39.17
64753;BME280;61095;52.454;16.948;2022-09-01T12:32:32;101186.63;;;20.25;38.90
64753;BME280;61095;52.454;16.948;2022-09-01T12:37:32;101179.53;;;20.24;39.08
64753;BME280;61095;52.454;16.948;2022-09-01T12:42:32;101175.19;;;20.37;39.61
64753;BME280;61095;52.454;16.948;2022-09-01T12:47:50;101179.78;;;20.49;38.94
64753;BME280;61095;52.454;16.948;2022-09-01T12:52:51;101168.81;;;20.54;39.06
64753;BME280;61095;52.454;16.948;2022-09-01T12:57:52;101161.53;;;20.70;39.24
64753;BME280;61095;52.454;16.948;2022-09-01T13:03:06;101161.06;;;20.64;39.27
64753;BME280;61095;52.454;16.948;2022-09-01T13:08:08;101166.44;;;20.64;39.20
64753;BME280;61095;52.454;16.948;2022-09-01T13:13:08;101149.75;;;20.58;39.55
64753;BME280;61095;52.454;16.948;2022-09-01T13:18:07;101161.34;;;20.59;40.08
64753;BME280;61095;52.454;16.948;2022-09-01T13:23:08;101160.06;;;20.36;40.32
64753;BME280;61095;52.454;16.948;2022-09-01T13:28:08;101157.31;;;20.22;40.83
64753;BME280;61095;52.454;16.948;2022-09-01T13:33:08;101165.28;;;19.93;41.20
64753;BME280;61095;52.454;16.948;2022-09-01T13:38:10;101164.41;;;19.93;41.45
64753;BME280;61095;52.454;16.948;2022-09-01T13:43:12;101158.47;;;19.88;41.69
64753;BME280;61095;52.454;16.948;2022-09-01T13:48:11;101156.28;;;19.94;41.87
64753;BME280;61095;52.454;16.948;2022-09-01T13:53:11;101154.97;;;20.02;41.97
64753;BME280;61095;52.454;16.948;2022-09-01T13:58:10;101152.91;;;20.07;41.81
64753;BME280;61095;52.454;16.948;2022-09-01T14:03:11;101143.72;;;20.11;42.07
64753;BME280;61095;52.454;16.948;2022-09-01T14:08:13;101139.72;;;20.18;42.42
64753;BME280;61095;52.454;16.948;2022-09-01T14:13:11;101155.81;;;20.32;42.44
64753;BME280;61095;52.454;16.948;2022-09-01T14:18:10;101149.69;;;20.30;42.34
64753;BME280;61095;52.454;16.948;2022-09-01T14:23:13;101141.91;;;20.25;41.55
64753;BME280;61095;52.454;16.948;2022-09-01T14:28:13;101146.03;;;20.31;41.77
64753;BME280;61095;52.454;16.948;2022-09-01T14:33:11;101149.63;;;20.46;41.63
64753;BME280;61095;52.454;16.948;2022-09-01T14:38:11;101146.31;;;20.56;41.55
64753;BME280;61095;52.454;16.948;2022-09-01T14:43:11;101143.06;;;20.66;41.92
64753;BME280;61095;52.454;16.948;2022-09-01T14:48:10;101141.13;;;20.68;42.16
64753;BME280;61095;52.454;16.948;2022-09-01T14:53:09;101138.25;;;20.71;41.55
64753;BME280;61095;52.454;16.948;2022-09-01T14:58:09;101132.59;;;20.75;41.16
64753;BME280;61095;52.454;16.948;2022-09-01T15:03:07;101141.91;;;20.70;41.06
64753;BME280;61095;52.454;16.948;2022-09-01T15:08:07;101134.81;;;20.69;41.35
64753;BME280;61095;52.454;16.948;2022-09-01T15:13:06;101130.13;;;20.72;40.98
64753;BME280;61095;52.454;16.948;2022-09-01T15:18:06;101122.94;;;20.73;41.21
64753;BME280;61095;52.454;16.948;2022-09-01T15:23:05;101126.56;;;20.72;41.44
64753;BME280;61095;52.454;16.948;2022-09-01T15:28:04;101122.06;;;20.72;41.77
64753;BME280;61095;52.454;16.948;2022-09-01T15:33:04;101126.78;;;20.69;41.64
64753;BME280;61095;52.454;16.948;2022-09-01T15:38:04;101111.03;;;20.48;42.41
64753;BME280;61095;52.454;16.948;2022-09-01T15:43:04;101119.69;;;20.53;42.12
64753;BME280;61095;52.454;16.948;2022-09-01T15:48:04;101112.97;;;20.46;42.15
64753;BME280;61095;52.454;16.948;2022-09-01T15:53:07;101101.09;;;20.36;42.57
64753;BME280;61095;52.454;16.948;2022-09-01T15:58:08;101110.94;;;20.36;42.48
64753;BME280;61095;52.454;16.948;2022-09-01T16:03:08;101108.81;;;20.26;42.80
64753;BME280;61095;52.454;16.948;2022-09-01T16:08:09;101117.31;;;20.19;43.34
64753;BME280;61095;52.454;16.948;2022-09-01T16:13:08;101109.28;;;20.19;43.54
64753;BME280;61095;52.454;16.948;2022-09-01T16:18:18;101118.47;;;20.15;43.75
64753;BME280;61095;52.454;16.948;2022-09-01T16:23:23;101107.06;;;20.11;43.67
64753;BME280;61095;52.454;16.948;2022-09-01T16:28:26;101115.53;;;20.04;44.39
64753;BME280;61095;52.454;16.948;2022-09-01T16:33:25;101113.81;;;20.03;44.05
64753;BME280;61095;52.454;16.948;2022-09-01T16:38:33;101097.44;;;19.93;45.29
64753;BME280;61095;52.454;16.948;2022-09-01T16:43:38;101107.09;;;19.95;45.48
64753;BME280;61095;52.454;16.948;2022-09-01T16:48:44;101104.38;;;20.11;45.43
64753;BME280;61095;52.454;16.948;2022-09-01T16:53:59;101104.97;;;20.16;45.55
64753;BME280;61095;52.454;16.948;2022-09-01T16:59:12;101106.81;;;20.00;45.76
64753;BME280;61095;52.454;16.948;2022-09-01T17:04:21;101108.44;;;19.88;45.69
64753;BME280;61095;52.454;16.948;2022-09-01T17:09:30;101111.75;;;19.78;45.95
64753;BME280;61095;52.454;16.948;2022-09-01T17:14:33;101114.13;;;19.68;46.39
64753;BME280;61095;52.454;16.948;2022-09-01T17:19:36;101111.91;;;19.60;46.42
64753;BME280;61095;52.454;16.948;2022-09-01T17:24:40;101116.28;;;19.61;47.71
64753;BME280;61095;52.454;16.948;2022-09-01T17:29:41;101118.56;;;19.83;46.52
64753;BME280;61095;52.454;16.948;2022-09-01T17:34:45;101116.88;;;19.96;46.62
64753;BME280;61095;52.454;16.948;2022-09-01T17:39:55;101123.59;;;20.04;46.01
64753;BME280;61095;52.454;16.948;2022-09-01T17:45:06;101128.78;;;20.07;46.29
64753;BME280;61095;52.454;16.948;2022-09-01T17:50:13;101137.41;;;19.82;46.31
64753;BME280;61095;52.454;16.948;2022-09-01T17:55:22;101139.34;;;19.64;47.02
64753;BME280;61095;52.454;16.948;2022-09-01T18:00:25;101142.34;;;19.42;47.06
64753;BME280;61095;52.454;16.948;2022-09-01T18:05:25;101150.38;;;19.26;47.72
64753;BME280;61095;52.454;16.948;2022-09-01T18:10:29;101146.78;;;19.12;48.32
64753;BME280;61095;52.454;16.948;2022-09-01T18:15:39;101152.25;;;18.93;48.51
64753;BME280;61095;52.454;16.948;2022-09-01T18:20:42;101155.59;;;18.81;48.53
64753;BME280;61095;52.454;16.948;2022-09-01T18:25:48;101155.47;;;18.66;49.13
64753;BME280;61095;52.454;16.948;2022-09-01T18:31:10;101155.22;;;18.54;49.66
64753;BME280;61095;52.454;16.948;2022-09-01T18:36:24;101153.91;;;18.45;49.54
64753;BME280;61095;52.454;16.948;2022-09-01T18:41:37;101155.97;;;18.40;49.92
64753;BME280;61095;52.454;16.948;2022-09-01T18:46:45;101161.97;;;18.28;50.24
64753;BME280;61095;52.454;16.948;2022-09-01T18:51:54;101171.41;;;18.18;50.52
64753;BME280;61095;52.454;16.948;2022-09-01T18:57:00;101167.53;;;18.06;50.41
64753;BME280;61095;52.454;16.948;2022-09-01T19:02:05;101178.38;;;18.03;50.54
64753;BME280;61095;52.454;16.948;2022-09-01T19:07:17;101176.25;;;17.92;51.66
64753;BME280;61095;52.454;16.948;2022-09-01T19:12:30;101177.41;;;17.87;51.63
64753;BME280;61095;52.454;16.948;2022-09-01T19:23:10;101173.22;;;17.81;51.79
64753;BME280;61095;52.454;16.948;2022-09-01T19:28:19;101180.75;;;17.73;52.75
64753;BME280;61095;52.454;16.948;2022-09-01T19:33:22;101185.28;;;17.71;52.30
64753;BME280;61095;52.454;16.948;2022-09-01T19:38:24;101185.38;;;17.69;51.73
64753;BME280;61095;52.454;16.948;2022-09-01T19:43:31;101194.50;;;17.64;52.38
64753;BME280;61095;52.454;16.948;2022-09-01T19:48:34;101197.34;;;17.61;52.42
64753;BME280;61095;52.454;16.948;2022-09-01T19:53:40;101197.06;;;17.48;52.86
64753;BME280;61095;52.454;16.948;2022-09-01T19:58:47;101197.44;;;17.40;52.55
64753;BME280;61095;52.454;16.948;2022-09-01T20:03:50;101207.41;;;17.37;52.47
64753;BME280;61095;52.454;16.948;2022-09-01T20:08:57;101203.66;;;17.22;53.45
64753;BME280;61095;52.454;16.948;2022-09-01T20:14:10;101195.56;;;17.05;53.75
64753;BME280;61095;52.454;16.948;2022-09-01T20:19:15;101199.44;;;16.98;53.94
64753;BME280;61095;52.454;16.948;2022-09-01T20:24:23;101199.19;;;16.83;54.66
64753;BME280;61095;52.454;16.948;2022-09-01T20:29:28;101205.03;;;16.71;55.01
64753;BME280;61095;52.454;16.948;2022-09-01T20:34:35;101203.72;;;16.61;54.83
64753;BME280;61095;52.454;16.948;2022-09-01T20:39:38;101210.47;;;16.49;55.09
64753;BME280;61095;52.454;16.948;2022-09-01T20:44:59;101209.13;;;16.39;55.45
64753;BME280;61095;52.454;16.948;2022-09-01T20:50:00;101211.88;;;16.38;55.28
64753;BME280;61095;52.454;16.948;2022-09-01T20:55:08;101216.59;;;16.31;55.84
64753;BME280;61095;52.454;16.948;2022-09-01T21:00:14;101223.97;;;16.24;56.08
64753;BME280;61095;52.454;16.948;2022-09-01T21:05:24;101240.25;;;16.17;55.87
64753;BME280;61095;52.454;16.948;2022-09-01T21:10:30;101234.25;;;16.12;55.72
64753;BME280;61095;52.454;16.948;2022-09-01T21:15:38;101235.53;;;16.03;55.57
64753;BME280;61095;52.454;16.948;2022-09-01T21:20:51;101234.00;;;15.96;56.35
64753;BME280;61095;52.454;16.948;2022-09-01T21:25:53;101237.72;;;15.92;55.69
64753;BME280;61095;52.454;16.948;2022-09-01T21:30:55;101238.84;;;15.86;56.14
64753;BME280;61095;52.454;16.948;2022-09-01T21:35:55;101243.31;;;15.86;55.86
64753;BME280;61095;52.454;16.948;2022-09-01T21:40:55;101244.44;;;15.79;56.24
64753;BME280;61095;52.454;16.948;2022-09-01T21:45:57;101242.09;;;15.71;56.57
64753;BME280;61095;52.454;16.948;2022-09-01T21:50:55;101248.53;;;15.66;56.25
64753;BME280;61095;52.454;16.948;2022-09-01T21:55:54;101245.19;;;15.60;56.58
64753;BME280;61095;52.454;16.948;2022-09-01T22:00:52;101244.41;;;15.58;56.25
64753;BME280;61095;52.454;16.948;2022-09-01T22:05:53;101242.03;;;15.51;56.82
64753;BME280;61095;52.454;16.948;2022-09-01T22:10:53;101243.84;;;15.50;56.79
64753;BME280;61095;52.454;16.948;2022-09-01T22:15:52;101251.13;;;15.45;56.68
64753;BME280;61095;52.454;16.948;2022-09-01T22:21:01;101246.84;;;15.41;57.20
64753;BME280;61095;52.454;16.948;2022-09-01T22:26:00;101251.94;;;15.47;56.86
64753;BME280;61095;52.454;16.948;2022-09-01T22:30:58;101257.38;;;15.44;56.73
64753;BME280;61095;52.454;16.948;2022-09-01T22:35:57;101249.56;;;15.40;56.70
64753;BME280;61095;52.454;16.948;2022-09-01T22:40:57;101253.38;;;15.33;57.33
64753;BME280;61095;52.454;16.948;2022-09-01T22:45:56;101246.31;;;15.32;56.83
64753;BME280;61095;52.454;16.948;2022-09-01T22:50:55;101243.72;;;15.30;56.69
64753;BME280;61095;52.454;16.948;2022-09-01T22:55:54;101241.97;;;15.29;57.09
64753;BME280;61095;52.454;16.948;2022-09-01T23:00:55;101233.63;;;15.16;57.25
64753;BME280;61095;52.454;16.948;2022-09-01T23:06:02;101237.59;;;15.05;57.61
64753;BME280;61095;52.454;16.948;2022-09-01T23:11:01;101240.38;;;15.02;57.34
64753;BME280;61095;52.454;16.948;2022-09-01T23:16:03;101237.84;;;14.98;57.82
64753;BME280;61095;52.454;16.948;2022-09-01T23:21:03;101238.03;;;14.92;57.98
64753;BME280;61095;52.454;16.948;2022-09-01T23:26:03;101233.84;;;14.85;57.85
64753;BME280;61095;52.454;16.948;2022-09-01T23:31:07;101227.19;;;14.74;58.55
64753;BME280;61095;52.454;16.948;2022-09-01T23:36:14;101231.84;;;14.67;58.82
64753;BME280;61095;52.454;16.948;2022-09-01T23:41:21;101232.06;;;14.61;58.58
64753;BME280;61095;52.454;16.948;2022-09-01T23:46:25;101219.94;;;14.54;58.77
64753;BME280;61095;52.454;16.948;2022-09-01T23:51:24;101225.31;;;14.52;58.75
64753;BME280;61095;52.454;16.948;2022-09-01T23:56:25;101228.34;;;14.42;59.42
